sensor_id;sensor_type;location;lat;lon;timestamp;pressure;altitude;pressure_sealevel;temperature;humidity
29461;BME280;16428;47.836;35.106;2023-11-18T00:01:54;101315.97;;;6.73;100.00
29461;BME280;16428;47.836;35.106;2023-11-18T00:04:21;101320.31;;;6.55;100.00
29461;BME280;16428;47.836;35.106;2023-11-18T00:06:48;101325.91;;;6.52;100.00
29461;BME280;16428;47.836;35.106;2023-11-18T00:09:16;101324.38;;;6.59;100.00
29461;BME280;16428;47.836;35.106;2023-11-18T00:11:43;101316.69;;;6.65;100.00
29461;BME280;16428;47.836;35.106;2023-11-18T00:14:10;101318.50;;;6.65;100.00
29461;BME280;16428;47.836;35.106;2023-11-18T00:16:38;101315.97;;;6.73;100.00
29461;BME280;16428;47.836;35.106;2023-11-18T00:19:06;101312.34;;;6.74;100.00
29461;BME280;16428;47.836;35.106;2023-11-18T00:21:33;101307.56;;;6.68;100.00
29461;BME280;16428;47.836;35.106;2023-11-18T00:24:00;101314.84;;;6.66;100.00
29461;BME280;16428;47.836;35.106;2023-11-18T00:26:27;101316.56;;;6.67;100.00
29461;BME280;16428;47.836;35.106;2023-11-18T00:28:54;101312.47;;;6.72;100.00
29461;BME280;16428;47.836;35.106;2023-11-18T00:31:21;101301.97;;;6.71;100.00
29461;BME280;16428;47.836;35.106;2023-11-18T00:33:48;101310.06;;;6.60;100.00
29461;BME280;16428;47.836;35.106;2023-11-18T00:36:15;101317.94;;;6.61;100.00
29461;BME280;16428;47.836;35.106;2023-11-18T00:38:42;101310.66;;;6.73;100.00
29461;BME280;16428;47.836;35.106;2023-11-18T00:41:09;101309.25;;;6.79;100.00
29461;BME280;16428;47.836;35.106;2023-11-18T00:43:36;101309.25;;;6.69;100.00
29461;BME280;16428;47.836;35.106;2023-11-18T00:46:04;101306.88;;;6.76;100.00
29461;BME280;16428;47.836;35.106;2023-11-18T00:48:32;101295.47;;;6.64;100.00
29461;BME280;16428;47.836;35.106;2023-11-18T00:50:59;101294.03;;;6.60;100.00
29461;BME280;16428;47.836;35.106;2023-11-18T00:53:26;101293.38;;;6.67;100.00
29461;BME280;16428;47.836;35.106;2023-11-18T00:55:53;101287.84;;;6.50;100.00
29461;BME280;16428;47.836;35.106;2023-11-18T00:58:20;101295.13;;;6.48;100.00
29461;BME280;16428;47.836;35.106;2023-11-18T01:00:47;101285.00;;;6.42;100.00
29461;BME280;16428;47.836;35.106;2023-11-18T01:03:14;101281.34;;;6.43;100.00
29461;BME280;16428;47.836;35.106;2023-11-18T01:05:42;101282.50;;;6.50;100.00
29461;BME280;16428;47.836;35.106;2023-11-18T01:08:09;101281.13;;;6.55;100.00
29461;BME280;16428;47.836;35.106;2023-11-18T01:10:37;101285.31;;;6.58;100.00
29461;BME280;16428;47.836;35.106;2023-11-18T01:13:05;101277.47;;;6.56;100.00
29461;BME280;16428;47.836;35.106;2023-11-18T01:15:32;101276.91;;;6.53;100.00
29461;BME280;16428;47.836;35.106;2023-11-18T01:17:59;101265.97;;;6.56;100.00
29461;BME280;16428;47.836;35.106;2023-11-18T01:20:26;101266.09;;;6.64;100.00
29461;BME280;16428;47.836;35.106;2023-11-18T01:22:53;101270.84;;;6.60;100.00
29461;BME280;16428;47.836;35.106;2023-11-18T01:25:20;101257.38;;;6.62;100.00
29461;BME280;16428;47.836;35.106;2023-11-18T01:27:48;101260.91;;;6.62;100.00
29461;BME280;16428;47.836;35.106;2023-11-18T01:30:15;101253.59;;;6.55;100.00
29461;BME280;16428;47.836;35.106;2023-11-18T01:32:42;101249.69;;;6.68;100.00
29461;BME280;16428;47.836;35.106;2023-11-18T01:35:10;101254.31;;;6.66;100.00
29461;BME280;16428;47.836;35.106;2023-11-18T01:37:38;101257.50;;;6.60;100.00
29461;BME280;16428;47.836;35.106;2023-11-18T01:40:06;101254.56;;;6.54;100.00
29461;BME280;16428;47.836;35.106;2023-11-18T01:42:34;101266.28;;;6.72;100.00
29461;BME280;16428;47.836;35.106;2023-11-18T01:45:01;101268.50;;;6.67;100.00
29461;BME280;16428;47.836;35.106;2023-11-18T01:47:32;101273.97;;;6.65;100.00
29461;BME280;16428;47.836;35.106;2023-11-18T01:50:01;101266.50;;;6.59;100.00
29461;BME280;16428;47.836;35.106;2023-11-18T01:52:29;101255.84;;;6.69;100.00
29461;BME280;16428;47.836;35.106;2023-11-18T01:54:58;101264.56;;;6.71;100.00
29461;BME280;16428;47.836;35.106;2023-11-18T01:57:26;101271.16;;;6.67;100.00
29461;BME280;16428;47.836;35.106;2023-11-18T01:59:54;101274.28;;;6.72;100.00
29461;BME280;16428;47.836;35.106;2023-11-18T02:02:21;101281.13;;;6.65;100.00
29461;BME280;16428;47.836;35.106;2023-11-18T02:04:48;101284.25;;;6.70;100.00
29461;BME280;16428;47.836;35.106;2023-11-18T02:07:16;101275.50;;;6.58;100.00
29461;BME280;16428;47.836;35.106;2023-11-18T02:09:44;101279.88;;;6.69;100.00
29461;BME280;16428;47.836;35.106;2023-11-18T02:12:34;101272.81;;;6.49;100.00
29461;BME280;16428;47.836;35.106;2023-11-18T02:15:07;101284.47;;;6.57;100.00
29461;BME280;16428;47.836;35.106;2023-11-18T02:17:38;101287.72;;;6.61;100.00
29461;BME280;16428;47.836;35.106;2023-11-18T02:20:06;101278.03;;;6.60;100.00
29461;BME280;16428;47.836;35.106;2023-11-18T02:22:42;101287.00;;;6.59;100.00
29461;BME280;16428;47.836;35.106;2023-11-18T02:25:09;101280.81;;;6.49;100.00
29461;BME280;16428;47.836;35.106;2023-11-18T02:27:38;101280.41;;;6.53;100.00
29461;BME280;16428;47.836;35.106;2023-11-18T02:30:06;101287.00;;;6.59;100.00
29461;BME280;16428;47.836;35.106;2023-11-18T02:32:45;101291.09;;;6.63;100.00
29461;BME280;16428;47.836;35.106;2023-11-18T02:35:20;101288.75;;;6.69;100.00
29461;BME280;16428;47.836;35.106;2023-11-18T02:37:50;101288.28;;;6.55;100.00
29461;BME280;16428;47.836;35.106;2023-11-18T02:40:27;101294.34;;;6.57;100.00
29461;BME280;16428;47.836;35.106;2023-11-18T02:42:59;101292.34;;;6.59;100.00
29461;BME280;16428;47.836;35.106;2023-11-18T02:45:27;101296.00;;;6.58;100.00
29461;BME280;16428;47.836;35.106;2023-11-18T02:47:55;101287.84;;;6.50;100.00
29461;BME280;16428;47.836;35.106;2023-11-18T02:50:25;101287.00;;;6.59;100.00
29461;BME280;16428;47.836;35.106;2023-11-18T02:52:54;101294.34;;;6.57;100.00
29461;BME280;16428;47.836;35.106;2023-11-18T02:55:21;101279.97;;;6.48;100.00
29461;BME280;16428;47.836;35.106;2023-11-18T02:57:49;101279.72;;;6.61;100.00
29461;BME280;16428;47.836;35.106;2023-11-18T03:00:18;101285.31;;;6.58;100.00
29461;BME280;16428;47.836;35.106;2023-11-18T03:02:49;101276.91;;;6.53;100.00
29461;BME280;16428;47.836;35.106;2023-11-18T03:05:19;101278.88;;;6.60;100.00
29461;BME280;16428;47.836;35.106;2023-11-18T03:07:48;101275.94;;;6.54;100.00
29461;BME280;16428;47.836;35.106;2023-11-18T03:10:21;101274.09;;;6.54;100.00
29461;BME280;16428;47.836;35.106;2023-11-18T03:12:52;101267.91;;;6.54;100.00
29461;BME280;16428;47.836;35.106;2023-11-18T03:15:21;101264.69;;;6.60;100.00
29461;BME280;16428;47.836;35.106;2023-11-18T03:17:50;101262.84;;;6.51;100.00
29461;BME280;16428;47.836;35.106;2023-11-18T03:20:19;101258.88;;;6.45;100.00
29461;BME280;16428;47.836;35.106;2023-11-18T03:22:47;101255.25;;;6.46;100.00
29461;BME280;16428;47.836;35.106;2023-11-18T03:25:15;101249.38;;;6.52;100.00
29461;BME280;16428;47.836;35.106;2023-11-18T03:27:43;101252.72;;;6.45;100.00
29461;BME280;16428;47.836;35.106;2023-11-18T03:30:11;101253.28;;;6.58;100.00
29461;BME280;16428;47.836;35.106;2023-11-18T03:32:39;101246.84;;;6.51;100.00
29461;BME280;16428;47.836;35.106;2023-11-18T03:35:07;101246.97;;;6.59;100.00
29461;BME280;16428;47.836;35.106;2023-11-18T03:37:39;101243.72;;;6.46;100.00
29461;BME280;16428;47.836;35.106;2023-11-18T03:40:12;101240.78;;;6.49;100.00
29461;BME280;16428;47.836;35.106;2023-11-18T03:42:42;101238.41;;;6.55;100.00
29461;BME280;16428;47.836;35.106;2023-11-18T03:45:09;101243.63;;;6.57;100.00
29461;BME280;16428;47.836;35.106;2023-11-18T03:47:37;101249.63;;;6.49;100.00
29461;BME280;16428;47.836;35.106;2023-11-18T03:50:05;101251.78;;;6.55;100.00
29461;BME280;16428;47.836;35.106;2023-11-18T03:52:32;101252.16;;;6.51;100.00
29461;BME280;16428;47.836;35.106;2023-11-18T03:55:03;101256.84;;;6.68;100.00
29461;BME280;16428;47.836;35.106;2023-11-18T03:57:31;101258.09;;;6.54;100.00
29461;BME280;16428;47.836;35.106;2023-11-18T03:59:58;101252.16;;;6.51;100.00
29461;BME280;16428;47.836;35.106;2023-11-18T04:02:25;101257.19;;;6.44;100.00
29461;BME280;16428;47.836;35.106;2023-11-18T04:04:52;101262.25;;;6.38;100.00
29461;BME280;16428;47.836;35.106;2023-11-18T04:07:20;101259.63;;;6.57;100.00
29461;BME280;16428;47.836;35.106;2023-11-18T04:09:48;101270.84;;;6.51;100.00
29461;BME280;16428;47.836;35.106;2023-11-18T04:12:15;101263.41;;;6.54;100.00
29461;BME280;16428;47.836;35.106;2023-11-18T04:14:43;101274.38;;;6.51;100.00
29461;BME280;16428;47.836;35.106;2023-11-18T04:17:09;101287.81;;;6.40;100.00
29461;BME280;16428;47.836;35.106;2023-11-18T04:19:37;101281.94;;;6.46;100.00
29461;BME280;16428;47.836;35.106;2023-11-18T04:22:06;101294.75;;;6.52;100.00
29461;BME280;16428;47.836;35.106;2023-11-18T04:24:33;101300.31;;;6.40;100.00
29461;BME280;16428;47.836;35.106;2023-11-18T04:27:02;101298.78;;;6.47;100.00
29461;BME280;16428;47.836;35.106;2023-11-18T04:29:29;101304.13;;;6.47;100.00
29461;BME280;16428;47.836;35.106;2023-11-18T04:31:57;101293.81;;;6.32;100.00
29461;BME280;16428;47.836;35.106;2023-11-18T04:34:24;101283.88;;;6.44;100.00
29461;BME280;16428;47.836;35.106;2023-11-18T04:36:51;101283.09;;;6.53;100.00
29461;BME280;16428;47.836;35.106;2023-11-18T04:39:18;101288.94;;;6.38;100.00
29461;BME280;16428;47.836;35.106;2023-11-18T04:41:47;101294.16;;;6.49;100.00
29461;BME280;16428;47.836;35.106;2023-11-18T04:44:14;101293.13;;;6.30;100.00
29461;BME280;16428;47.836;35.106;2023-11-18T04:46:43;101285.81;;;6.32;100.00
29461;BME280;16428;47.836;35.106;2023-11-18T04:49:11;101281.09;;;6.46;100.00
29461;BME280;16428;47.836;35.106;2023-11-18T04:51:39;101276.31;;;6.40;100.00
29461;BME280;16428;47.836;35.106;2023-11-18T04:54:06;101274.31;;;6.42;100.00
29461;BME280;16428;47.836;35.106;2023-11-18T04:56:34;101255.50;;;6.43;100.00
29461;BME280;16428;47.836;35.106;2023-11-18T04:59:03;101263.13;;;6.48;100.00
29461;BME280;16428;47.836;35.106;2023-11-18T05:01:33;101261.28;;;6.39;100.00
29461;BME280;16428;47.836;35.106;2023-11-18T05:04:00;101263.97;;;6.58;100.00
29461;BME280;16428;47.836;35.106;2023-11-18T05:06:27;101261.69;;;6.44;100.00
29461;BME280;16428;47.836;35.106;2023-11-18T05:08:54;101251.06;;;6.53;100.00
29461;BME280;16428;47.836;35.106;2023-11-18T05:11:22;101244.84;;;6.43;100.00
29461;BME280;16428;47.836;35.106;2023-11-18T05:13:49;101248.34;;;6.34;100.00
29461;BME280;16428;47.836;35.106;2023-11-18T05:16:17;101263.66;;;6.42;100.00
29461;BME280;16428;47.836;35.106;2023-11-18T05:18:44;101275.03;;;6.44;100.00
29461;BME280;16428;47.836;35.106;2023-11-18T05:21:11;101283.03;;;6.44;100.00
29461;BME280;16428;47.836;35.106;2023-11-18T05:23:38;101289.53;;;6.41;100.00
29461;BME280;16428;47.836;35.106;2023-11-18T05:26:06;101282.25;;;6.53;100.00
29461;BME280;16428;47.836;35.106;2023-11-18T05:28:33;101291.22;;;6.52;100.00
29461;BME280;16428;47.836;35.106;2023-11-18T05:31:01;101295.41;;;6.45;100.00
29461;BME280;16428;47.836;35.106;2023-11-18T05:33:29;101298.84;;;6.56;100.00
29461;BME280;16428;47.836;35.106;2023-11-18T05:35:57;101293.31;;;6.58;100.00
29461;BME280;16428;47.836;35.106;2023-11-18T05:38:24;101303.22;;;6.67;100.00
29461;BME280;16428;47.836;35.106;2023-11-18T05:40:54;101310.38;;;6.76;100.00
29461;BME280;16428;47.836;35.106;2023-11-18T05:43:33;101312.59;;;6.61;100.00
29461;BME280;16428;47.836;35.106;2023-11-18T05:46:04;101304.03;;;6.67;100.00
29461;BME280;16428;47.836;35.106;2023-11-18T05:49:05;101310.66;;;6.73;100.00
29461;BME280;16428;47.836;35.106;2023-11-18T05:51:35;101318.28;;;6.87;100.00
29461;BME280;16428;47.836;35.106;2023-11-18T05:54:03;101319.41;;;6.85;100.00
29461;BME280;16428;47.836;35.106;2023-11-18T05:56:30;101315.59;;;6.78;100.00
29461;BME280;16428;47.836;35.106;2023-11-18T05:58:58;101319.66;;;6.72;100.00
29461;BME280;16428;47.836;35.106;2023-11-18T06:01:25;101316.81;;;6.74;100.00
29461;BME280;16428;47.836;35.106;2023-11-18T06:03:54;101306.59;;;6.79;100.00
29461;BME280;16428;47.836;35.106;2023-11-18T06:06:23;101299.25;;;6.61;100.00
29461;BME280;16428;47.836;35.106;2023-11-18T06:08:51;101298.72;;;6.67;100.00
29461;BME280;16428;47.836;35.106;2023-11-18T06:11:19;101310.66;;;6.73;100.00
29461;BME280;16428;47.836;35.106;2023-11-18T06:13:50;101314.03;;;6.75;100.00
29461;BME280;16428;47.836;35.106;2023-11-18T06:16:22;101324.13;;;6.62;100.00
29461;BME280;16428;47.836;35.106;2023-11-18T06:18:53;101320.78;;;6.69;100.00
29461;BME280;16428;47.836;35.106;2023-11-18T06:21:21;101317.97;;;6.71;100.00
29461;BME280;16428;47.836;35.106;2023-11-18T06:23:54;101323.84;;;6.65;100.00
29461;BME280;16428;47.836;35.106;2023-11-18T06:26:24;101322.75;;;6.77;100.00
29461;BME280;16428;47.836;35.106;2023-11-18T06:28:54;101324.31;;;6.89;100.00
29461;BME280;16428;47.836;35.106;2023-11-18T06:31:23;101321.06;;;6.76;100.00
29461;BME280;16428;47.836;35.106;2023-11-18T06:33:52;101317.44;;;6.96;100.00
29461;BME280;16428;47.836;35.106;2023-11-18T06:36:21;101320.53;;;6.92;100.00
29461;BME280;16428;47.836;35.106;2023-11-18T06:38:50;101318.56;;;6.84;100.00
29461;BME280;16428;47.836;35.106;2023-11-18T06:41:20;101334.00;;;6.81;100.00
29461;BME280;16428;47.836;35.106;2023-11-18T06:43:51;101336.69;;;6.90;100.00
29461;BME280;16428;47.836;35.106;2023-11-18T06:46:32;101340.47;;;6.88;100.00
29461;BME280;16428;47.836;35.106;2023-11-18T06:49:07;101336.53;;;6.92;100.00
29461;BME280;16428;47.836;35.106;2023-11-18T06:51:35;101339.91;;;6.84;100.00
29461;BME280;16428;47.836;35.106;2023-11-18T06:54:04;101334.84;;;6.91;100.00
29461;BME280;16428;47.836;35.106;2023-11-18T06:56:39;101340.78;;;7.04;100.00
29461;BME280;16428;47.836;35.106;2023-11-18T06:59:06;101345.00;;;6.97;100.00
29461;BME280;16428;47.836;35.106;2023-11-18T07:01:34;101329.41;;;7.02;100.00
29461;BME280;16428;47.836;35.106;2023-11-18T07:04:03;101336.81;;;6.89;100.00
29461;BME280;16428;47.836;35.106;2023-11-18T07:06:30;101329.78;;;6.78;100.00
29461;BME280;16428;47.836;35.106;2023-11-18T07:08:58;101332.19;;;6.81;100.00
29461;BME280;16428;47.836;35.106;2023-11-18T07:11:27;101322.91;;;6.85;100.00
29461;BME280;16428;47.836;35.106;2023-11-18T07:13:54;101325.44;;;6.87;100.00
29461;BME280;16428;47.836;35.106;2023-11-18T07:16:24;101330.09;;;6.94;100.00
29461;BME280;16428;47.836;35.106;2023-11-18T07:18:52;101325.91;;;7.01;100.00
29461;BME280;16428;47.836;35.106;2023-11-18T07:21:19;101323.50;;;6.98;100.00
29461;BME280;16428;47.836;35.106;2023-11-18T07:23:47;101320.81;;;6.98;100.00
29461;BME280;16428;47.836;35.106;2023-11-18T07:26:14;101319.69;;;6.91;100.00
29461;BME280;16428;47.836;35.106;2023-11-18T07:28:41;101318.28;;;6.97;100.00
29461;BME280;16428;47.836;35.106;2023-11-18T07:31:11;101315.34;;;7.00;100.00
29461;BME280;16428;47.836;35.106;2023-11-18T07:33:39;101310.69;;;6.92;100.00
29461;BME280;16428;47.836;35.106;2023-11-18T07:36:10;101308.72;;;7.04;100.00
29461;BME280;16428;47.836;35.106;2023-11-18T07:38:39;101317.47;;;7.25;100.00
29461;BME280;16428;47.836;35.106;2023-11-18T07:41:06;101308.88;;;7.22;100.00
29461;BME280;16428;47.836;35.106;2023-11-18T07:43:36;101311.81;;;6.99;100.00
29461;BME280;16428;47.836;35.106;2023-11-18T07:46:04;101312.41;;;7.13;100.00
29461;BME280;16428;47.836;35.106;2023-11-18T07:48:35;101301.97;;;7.19;100.00
29461;BME280;16428;47.836;35.106;2023-11-18T07:51:02;101295.66;;;7.30;100.00
29461;BME280;16428;47.836;35.106;2023-11-18T07:53:30;101301.16;;;6.99;100.00
29461;BME280;16428;47.836;35.106;2023-11-18T07:55:57;101306.22;;;7.02;100.00
29461;BME280;16428;47.836;35.106;2023-11-18T07:58:24;101303.94;;;7.07;100.00
29461;BME280;16428;47.836;35.106;2023-11-18T08:00:54;101307.03;;;7.03;100.00
29461;BME280;16428;47.836;35.106;2023-11-18T08:03:21;101315.75;;;7.24;100.00
29461;BME280;16428;47.836;35.106;2023-11-18T08:05:49;101317.47;;;7.16;100.00
29461;BME280;16428;47.836;35.106;2023-11-18T08:08:16;101311.56;;;7.02;100.00
29461;BME280;16428;47.836;35.106;2023-11-18T08:10:44;101309.69;;;7.03;100.00
29461;BME280;16428;47.836;35.106;2023-11-18T08:13:11;101321.94;;;6.86;100.00
29461;BME280;16428;47.836;35.106;2023-11-18T08:15:41;101320.25;;;7.04;100.00
29461;BME280;16428;47.836;35.106;2023-11-18T08:18:09;101307.28;;;6.71;100.00
29461;BME280;16428;47.836;35.106;2023-11-18T08:20:39;101325.44;;;6.87;100.00
29461;BME280;16428;47.836;35.106;2023-11-18T08:23:06;101315.13;;;6.63;100.00
29461;BME280;16428;47.836;35.106;2023-11-18T08:25:34;101317.69;;;6.74;100.00
29461;BME280;16428;47.836;35.106;2023-11-18T08:28:03;101320.78;;;6.79;100.00
29461;BME280;16428;47.836;35.106;2023-11-18T08:30:31;101324.44;;;6.78;100.00
29461;BME280;16428;47.836;35.106;2023-11-18T08:33:01;101327.81;;;6.80;100.00
29461;BME280;16428;47.836;35.106;2023-11-18T08:35:32;101327.56;;;6.83;100.00
29461;BME280;16428;47.836;35.106;2023-11-18T08:38:00;101325.28;;;6.79;100.00
29461;BME280;16428;47.836;35.106;2023-11-18T08:40:28;101329.44;;;6.62;100.00
29461;BME280;16428;47.836;35.106;2023-11-18T08:42:56;101328.41;;;6.84;100.00
29461;BME280;16428;47.836;35.106;2023-11-18T08:45:25;101336.38;;;6.74;100.00
29461;BME280;16428;47.836;35.106;2023-11-18T08:48:04;101329.50;;;6.72;100.00
29461;BME280;16428;47.836;35.106;2023-11-18T08:50:36;101317.91;;;6.52;100.00
29461;BME280;16428;47.836;35.106;2023-11-18T08:53:08;101309.41;;;6.77;100.00
29461;BME280;16428;47.836;35.106;2023-11-18T08:55:38;101318.19;;;6.58;100.00
29461;BME280;16428;47.836;35.106;2023-11-18T08:58:14;101308.16;;;6.81;100.00
29461;BME280;16428;47.836;35.106;2023-11-18T09:00:58;101308.66;;;6.56;100.00
29461;BME280;16428;47.836;35.106;2023-11-18T09:03:43;101301.38;;;6.77;100.00
29461;BME280;16428;47.836;35.106;2023-11-18T09:06:16;101290.41;;;6.61;100.00
29461;BME280;16428;47.836;35.106;2023-11-18T09:08:47;101288.03;;;6.77;100.00
29461;BME280;16428;47.836;35.106;2023-11-18T09:11:22;101291.72;;;6.95;100.00
29461;BME280;16428;47.836;35.106;2023-11-18T09:13:50;101296.47;;;6.92;100.00
29461;BME280;16428;47.836;35.106;2023-11-18T09:16:21;101287.91;;;7.07;100.00
29461;BME280;16428;47.836;35.106;2023-11-18T09:18:56;101288.91;;;7.16;100.00
29461;BME280;16428;47.836;35.106;2023-11-18T09:21:26;101280.88;;;7.06;100.00
29461;BME280;16428;47.836;35.106;2023-11-18T09:23:56;101272.16;;;7.04;100.00
29461;BME280;16428;47.836;35.106;2023-11-18T09:26:24;101280.19;;;7.04;100.00
29461;BME280;16428;47.836;35.106;2023-11-18T09:28:53;101275.56;;;6.97;100.00
29461;BME280;16428;47.836;35.106;2023-11-18T09:31:20;101271.91;;;7.17;100.00
29461;BME280;16428;47.836;35.106;2023-11-18T09:33:48;101276.38;;;7.07;100.00
29461;BME280;16428;47.836;35.106;2023-11-18T09:36:25;101271.19;;;7.05;100.00
29461;BME280;16428;47.836;35.106;2023-11-18T09:38:55;101276.13;;;7.10;100.00
29461;BME280;16428;47.836;35.106;2023-11-18T09:41:23;101271.72;;;7.19;100.00
29461;BME280;16428;47.836;35.106;2023-11-18T09:43:55;101275.81;;;7.23;100.00
29461;BME280;16428;47.836;35.106;2023-11-18T09:46:26;101280.34;;;7.13;100.00
29461;BME280;16428;47.836;35.106;2023-11-18T09:51:45;101284.69;;;6.94;100.00
29461;BME280;16428;47.836;35.106;2023-11-18T09:54:32;101277.94;;;7.19;100.00
29461;BME280;16428;47.836;35.106;2023-11-18T10:02:41;101272.75;;;6.98;100.00
29461;BME280;16428;47.836;35.106;2023-11-18T10:05:12;101285.41;;;6.87;100.00
29461;BME280;16428;47.836;35.106;2023-11-18T10:07:44;101288.34;;;7.13;100.00
29461;BME280;16428;47.836;35.106;2023-11-18T10:10:14;101284.00;;;7.12;100.00
29461;BME280;16428;47.836;35.106;2023-11-18T10:12:42;101281.16;;;6.94;100.00
29461;BME280;16428;47.836;35.106;2023-11-18T10:15:14;101287.22;;;7.15;100.00
29461;BME280;16428;47.836;35.106;2023-11-18T10:17:44;101302.69;;;7.12;100.00
29461;BME280;16428;47.836;35.106;2023-11-18T10:23:08;101287.38;;;7.14;100.00
29461;BME280;16428;47.836;35.106;2023-11-18T10:25:54;101273.56;;;7.09;100.00
29461;BME280;16428;47.836;35.106;2023-11-18T10:31:02;101270.47;;;7.23;100.00
29461;BME280;16428;47.836;35.106;2023-11-18T10:33:38;101262.63;;;7.31;100.00
29461;BME280;16428;47.836;35.106;2023-11-18T10:36:06;101267.06;;;7.50;100.00
29461;BME280;16428;47.836;35.106;2023-11-18T10:38:40;101257.25;;;7.40;100.00
29461;BME280;16428;47.836;35.106;2023-11-18T10:41:19;101246.25;;;7.34;100.00
29461;BME280;16428;47.836;35.106;2023-11-18T10:43:47;101242.06;;;7.31;100.00
29461;BME280;16428;47.836;35.106;2023-11-18T10:46:17;101237.25;;;7.35;100.00
29461;BME280;16428;47.836;35.106;2023-11-18T10:48:50;101223.34;;;7.41;100.00
29461;BME280;16428;47.836;35.106;2023-11-18T10:51:19;101215.50;;;7.30;100.00
29461;BME280;16428;47.836;35.106;2023-11-18T10:53:48;101211.69;;;7.23;100.00
29461;BME280;16428;47.836;35.106;2023-11-18T10:56:31;101211.56;;;7.15;100.00
29461;BME280;16428;47.836;35.106;2023-11-18T10:59:07;101210.31;;;6.99;100.00
29461;BME280;16428;47.836;35.106;2023-11-18T11:01:38;101211.44;;;7.06;100.00
29461;BME280;16428;47.836;35.106;2023-11-18T11:04:11;101213.13;;;7.17;100.00
29461;BME280;16428;47.836;35.106;2023-11-18T11:06:46;101214.78;;;7.18;100.00
29461;BME280;16428;47.836;35.106;2023-11-18T11:09:20;101215.31;;;7.41;100.00
29461;BME280;16428;47.836;35.106;2023-11-18T11:11:56;101214.97;;;7.17;100.00
29461;BME280;16428;47.836;35.106;2023-11-18T11:14:39;101204.94;;;7.19;100.00
29461;BME280;16428;47.836;35.106;2023-11-18T11:17:13;101205.25;;;7.16;100.00
29461;BME280;16428;47.836;35.106;2023-11-18T11:20:02;101201.44;;;7.09;100.00
29461;BME280;16428;47.836;35.106;2023-11-18T11:22:49;101193.72;;;7.15;100.00
29461;BME280;16428;47.836;35.106;2023-11-18T11:25:35;101197.66;;;7.11;100.00
29461;BME280;16428;47.836;35.106;2023-11-18T11:28:11;101192.59;;;7.18;100.00
29461;BME280;16428;47.836;35.106;2023-11-18T11:31:12;101178.66;;;7.24;100.00
29461;BME280;16428;47.836;35.106;2023-11-18T11:33:46;101180.38;;;7.15;100.00
29461;BME280;16428;47.836;35.106;2023-11-18T11:36:21;101160.28;;;7.01;100.00
29461;BME280;16428;47.836;35.106;2023-11-18T11:38:54;101168.69;;;7.06;100.00
29461;BME280;16428;47.836;35.106;2023-11-18T11:41:23;101164.78;;;7.01;100.00
29461;BME280;16428;47.836;35.106;2023-11-18T11:43:54;101152.94;;;7.03;100.00
29461;BME280;16428;47.836;35.106;2023-11-18T11:46:27;101159.31;;;7.02;100.00
29461;BME280;16428;47.836;35.106;2023-11-18T11:49:03;101149.34;;;6.85;100.00
29461;BME280;16428;47.836;35.106;2023-11-18T11:52:02;101148.75;;;6.91;100.00
29461;BME280;16428;47.836;35.106;2023-11-18T11:54:37;101149.19;;;6.96;100.00
29461;BME280;16428;47.836;35.106;2023-11-18T11:57:07;101164.66;;;6.83;100.00
29461;BME280;16428;47.836;35.106;2023-11-18T12:02:23;101170.13;;;6.91;100.00
29461;BME280;16428;47.836;35.106;2023-11-18T12:04:53;101189.25;;;6.96;100.00
29461;BME280;16428;47.836;35.106;2023-11-18T12:07:24;101195.56;;;6.95;100.00
29461;BME280;16428;47.836;35.106;2023-11-18T12:09:59;101208.34;;;6.92;100.00
29461;BME280;16428;47.836;35.106;2023-11-18T12:12:27;101215.41;;;7.02;100.00
29461;BME280;16428;47.836;35.106;2023-11-18T12:14:59;101226.19;;;7.11;100.00
29461;BME280;16428;47.836;35.106;2023-11-18T12:23:14;101251.50;;;7.06;100.00
29461;BME280;16428;47.836;35.106;2023-11-18T12:25:45;101251.94;;;6.92;100.00
29461;BME280;16428;47.836;35.106;2023-11-18T12:28:17;101262.63;;;6.83;100.00
29461;BME280;16428;47.836;35.106;2023-11-18T12:30:49;101261.78;;;6.82;100.00
29461;BME280;16428;47.836;35.106;2023-11-18T12:33:19;101250.38;;;6.80;100.00
29461;BME280;16428;47.836;35.106;2023-11-18T12:41:34;101261.19;;;6.88;100.00
29461;BME280;16428;47.836;35.106;2023-11-18T12:46:53;101265.28;;;6.92;100.00
29461;BME280;16428;47.836;35.106;2023-11-18T12:49:23;101269.19;;;6.88;100.00
29461;BME280;16428;47.836;35.106;2023-11-18T12:51:53;101272.59;;;6.81;100.00
29461;BME280;16428;47.836;35.106;2023-11-18T12:54:27;101271.88;;;6.88;100.00
29461;BME280;16428;47.836;35.106;2023-11-18T12:56:56;101270.63;;;6.92;100.00
29461;BME280;16428;47.836;35.106;2023-11-18T12:59:23;101270.63;;;6.92;100.00
29461;BME280;16428;47.836;35.106;2023-11-18T13:01:53;101259.81;;;6.84;100.00
29461;BME280;16428;47.836;35.106;2023-11-18T13:04:25;101254.47;;;6.84;100.00
29461;BME280;16428;47.836;35.106;2023-11-18T13:06:54;101264.56;;;6.71;100.00
29461;BME280;16428;47.836;35.106;2023-11-18T13:09:22;101268.22;;;6.80;100.00
29461;BME280;16428;47.836;35.106;2023-11-18T13:11:54;101266.25;;;6.82;100.00
29461;BME280;16428;47.836;35.106;2023-11-18T13:14:34;101266.00;;;6.85;100.00
29461;BME280;16428;47.836;35.106;2023-11-18T13:17:08;101266.66;;;6.67;100.00
29461;BME280;16428;47.836;35.106;2023-11-18T13:19:35;101266.00;;;6.85;100.00
29461;BME280;16428;47.836;35.106;2023-11-18T13:22:04;101260.34;;;6.78;100.00
29461;BME280;16428;47.836;35.106;2023-11-18T13:24:40;101263.88;;;6.69;100.00
29461;BME280;16428;47.836;35.106;2023-11-18T13:27:08;101263.16;;;6.77;100.00